createdAt,value
2022-10-14T00:01:33.665Z,79036.41
2022-10-14T00:04:02.382Z,79034.34
2022-10-14T00:06:34.216Z,79048.06
2022-10-14T00:09:07.306Z,79051.38
2022-10-14T00:11:38.269Z,79049.34
2022-10-14T00:14:13.785Z,79046.88
2022-10-14T00:16:44.363Z,79050.03
2022-10-14T00:19:15.043Z,79048.09
2022-10-14T00:21:46.752Z,79037.59
2022-10-14T00:24:17.877Z,79028.41
2022-10-14T00:26:48.040Z,79026.03
2022-10-14T00:29:21.909Z,79051.97
2022-10-14T00:31:52.655Z,79046.06
2022-10-14T00:34:21.444Z,79033.97
2022-10-14T00:36:49.956Z,79054.03
2022-10-14T00:39:20.966Z,79035.41
2022-10-14T00:41:50.076Z,79057.84
2022-10-14T00:44:21.781Z,79056.97
2022-10-14T00:46:52.096Z,79053.41
2022-10-14T00:49:35.964Z,79056.13
2022-10-14T00:52:20.076Z,79058.13
2022-10-14T00:54:59.419Z,79036.28
2022-10-14T00:57:30.868Z,79048.00
2022-10-14T01:00:09.583Z,79027.63
2022-10-14T01:02:38.854Z,79060.63
2022-10-14T01:05:11.047Z,79062.50
2022-10-14T01:07:53.929Z,79069.16
2022-10-14T01:10:32.348Z,79058.59
2022-10-14T01:13:19.366Z,79068.47
2022-10-14T01:16:18.122Z,79055.56
2022-10-14T01:19:25.391Z,79050.94
2022-10-14T01:22:04.207Z,79067.03
2022-10-14T01:25:01.559Z,79047.47
2022-10-14T01:27:45.110Z,79058.69
2022-10-14T01:30:25.793Z,79064.22
2022-10-14T01:33:06.092Z,79066.03
2022-10-14T01:35:58.771Z,79067.41
2022-10-14T01:38:59.839Z,79061.44
2022-10-14T01:41:36.333Z,79068.13
2022-10-14T01:44:11.272Z,79075.56
2022-10-14T01:46:47.822Z,79074.00
2022-10-14T05:56:09.727Z,79181.00
2022-10-14T05:58:42.219Z,79176.78
2022-10-14T06:01:12.997Z,79174.97
2022-10-14T06:03:47.134Z,79170.09
2022-10-14T06:06:16.211Z,79156.00
2022-10-14T06:08:45.922Z,79152.91
2022-10-14T06:11:15.362Z,79144.84
2022-10-14T06:13:44.494Z,79153.31
2022-10-14T06:16:13.441Z,79156.31
2022-10-14T06:18:42.692Z,79170.56
2022-10-14T06:21:13.630Z,79162.56
2022-10-14T06:23:42.593Z,79157.16
2022-10-14T06:26:11.302Z,79170.38
2022-10-14T06:28:41.032Z,79143.84
2022-10-14T06:31:09.779Z,79163.19
2022-10-14T06:33:38.866Z,79148.69
2022-10-14T06:36:11.194Z,79169.34
2022-10-14T06:38:39.914Z,79160.66
2022-10-14T06:41:08.702Z,79149.34
2022-10-14T06:43:41.194Z,79158.22
2022-10-14T06:46:10.207Z,79156.00
2022-10-14T06:48:38.877Z,79165.63
2022-10-14T06:51:08.063Z,79160.88
2022-10-14T06:53:36.823Z,79150.16
2022-10-14T06:56:07.850Z,79165.66
2022-10-14T06:58:36.739Z,79156.28
2022-10-14T07:01:09.542Z,79167.25
2022-10-14T07:03:40.205Z,79161.63
2022-10-14T07:06:10.399Z,79159.91
2022-10-14T07:08:39.475Z,79149.59
2022-10-14T07:11:09.093Z,79154.56
2022-10-14T07:13:38.780Z,79149.19
2022-10-14T07:16:07.802Z,79156.81
2022-10-14T07:18:36.989Z,79146.34
2022-10-14T07:21:07.004Z,79137.13
2022-10-14T07:23:36.252Z,79143.94
2022-10-14T07:26:05.226Z,79138.84
2022-10-14T07:28:35.052Z,79147.44
2022-10-14T07:31:08.413Z,79149.53
2022-10-14T07:33:39.814Z,79132.63
2022-10-14T07:36:13.038Z,79137.75
2022-10-14T07:38:44.083Z,79131.31
2022-10-14T07:41:19.374Z,79132.00
2022-10-14T07:43:51.932Z,79125.88
2022-10-14T07:46:30.496Z,79124.34
2022-10-14T07:49:01.950Z,79121.50
2022-10-14T07:51:31.332Z,79121.03
2022-10-14T07:54:02.688Z,79110.91
2022-10-14T07:56:31.668Z,79095.81
2022-10-14T07:59:00.674Z,79103.88
2022-10-14T08:01:29.671Z,79112.63
2022-10-14T08:03:59.000Z,79108.09
2022-10-14T08:06:27.898Z,79104.72
2022-10-14T08:08:56.800Z,79100.94
2022-10-14T08:11:29.087Z,79106.25
2022-10-14T08:13:59.762Z,79108.75
2022-10-14T08:16:31.507Z,79112.66
2022-10-14T08:19:02.330Z,79105.75
2022-10-14T08:21:31.247Z,79089.72
2022-10-14T08:24:00.169Z,79087.38
2022-10-14T08:26:41.693Z,79095.22
2022-10-14T08:29:13.571Z,79098.72
2022-10-14T08:31:42.518Z,79091.78
2022-10-14T08:34:12.066Z,79078.94
2022-10-14T08:36:41.240Z,79082.47
2022-10-14T08:42:12.157Z,79085.22
2022-10-14T08:44:46.726Z,79061.75
2022-10-14T08:47:21.486Z,79079.72
2022-10-14T08:50:04.901Z,79081.63
2022-10-14T08:52:46.522Z,79059.41
2022-10-14T08:55:39.113Z,79072.56
2022-10-14T08:58:33.462Z,79071.78
2022-10-14T09:01:35.854Z,79079.19
2022-10-14T09:04:08.429Z,79074.75
2022-10-14T09:06:42.173Z,79066.19
2022-10-14T09:09:20.601Z,79057.84
2022-10-14T09:12:13.971Z,79063.13
2022-10-14T09:15:00.617Z,79037.31
2022-10-14T09:17:38.370Z,79057.28
2022-10-14T09:20:29.750Z,79055.84
2022-10-14T09:23:24.416Z,79055.75
2022-10-14T09:26:05.778Z,79050.47
2022-10-14T09:28:41.424Z,79038.69
2022-10-14T09:31:14.495Z,79052.31
2022-10-14T09:33:45.838Z,79041.94
2022-10-14T09:36:21.030Z,79040.41
2022-10-14T09:38:53.724Z,79044.00
2022-10-14T09:41:29.416Z,79036.66
2022-10-14T09:44:22.459Z,79037.13
2022-10-14T09:46:58.325Z,79038.31
2022-10-14T09:49:35.436Z,79034.91
2022-10-14T09:52:05.133Z,79036.88
2022-10-14T09:54:35.679Z,79036.56
2022-10-14T09:57:09.029Z,79043.06
2022-10-14T09:59:55.289Z,79030.72
2022-10-14T10:02:35.918Z,79039.00
2022-10-14T10:05:29.798Z,79041.50
2022-10-14T10:08:11.941Z,79043.84
2022-10-14T10:10:41.443Z,79037.81
2022-10-14T10:13:23.250Z,79035.25
2022-10-14T10:16:03.974Z,79040.66
2022-10-14T10:18:32.960Z,79042.81
2022-10-14T10:21:07.648Z,79044.66
2022-10-14T10:23:37.881Z,79034.69
2022-10-14T10:26:18.706Z,79021.19
2022-10-14T10:28:50.815Z,79027.00
2022-10-14T10:31:56.734Z,79037.16
2022-10-14T10:34:31.565Z,79038.69
2022-10-14T10:37:34.466Z,79049.69
2022-10-14T10:40:25.719Z,79050.50
2022-10-14T10:43:17.334Z,79047.00
2022-10-14T10:46:18.344Z,79038.72
2022-10-14T10:49:09.877Z,79049.50
2022-10-14T10:52:00.609Z,79050.13
2022-10-14T10:54:48.897Z,79055.59
2022-10-14T10:57:33.031Z,79048.75
2022-10-14T11:00:10.100Z,79050.38
2022-10-14T11:02:59.649Z,79046.94
2022-10-14T11:05:40.388Z,79048.59
2022-10-14T11:08:52.953Z,79041.97
2022-10-14T11:12:02.860Z,79038.28
2022-10-14T11:14:37.400Z,79041.84
2022-10-14T11:17:25.228Z,79037.66
2022-10-14T11:20:00.416Z,79021.84
2022-10-14T11:22:54.599Z,79047.91
2022-10-14T11:25:41.538Z,79047.81
2022-10-14T11:28:40.728Z,79045.69
2022-10-14T11:31:33.808Z,79044.56
2022-10-14T11:34:26.053Z,79045.81
2022-10-14T11:37:24.899Z,79050.97
2022-10-14T11:40:08.093Z,79031.28
2022-10-14T11:42:57.738Z,79045.84
2022-10-14T11:45:51.215Z,79050.25
2022-10-14T11:48:25.909Z,79044.16
2022-10-14T11:51:21.181Z,79048.72
2022-10-14T11:54:01.753Z,79046.75
2022-10-14T11:56:41.132Z,79046.84
2022-10-14T11:59:41.326Z,79044.72
2022-10-14T12:02:45.977Z,79049.19
2022-10-14T12:06:00.267Z,79056.34
2022-10-14T12:08:33.289Z,79050.78
2022-10-14T12:11:10.431Z,79044.03
2022-10-14T12:13:58.836Z,79054.44
2022-10-14T12:16:28.633Z,79054.41
2022-10-14T12:18:58.855Z,79057.16
2022-10-14T12:21:52.493Z,79056.50
2022-10-14T12:24:34.812Z,79036.97
2022-10-14T12:27:08.489Z,79047.88
2022-10-14T12:29:49.134Z,79062.78
2022-10-14T12:32:20.495Z,79061.75
2022-10-14T12:34:58.038Z,79062.22
2022-10-14T12:37:36.110Z,79053.81
2022-10-14T12:40:07.751Z,79053.38
2022-10-14T12:42:45.578Z,79057.59
2022-10-14T12:45:19.901Z,79064.56
2022-10-14T12:47:49.091Z,79057.78
2022-10-14T12:50:20.613Z,79067.34
2022-10-14T12:52:58.497Z,79064.69
2022-10-14T12:55:32.413Z,79066.84
2022-10-14T12:58:05.685Z,79060.31
2022-10-14T13:00:43.614Z,79060.50
2022-10-14T13:03:23.143Z,79069.84
2022-10-14T13:05:53.511Z,79056.66
2022-10-14T13:08:24.550Z,79076.75
2022-10-14T13:10:56.893Z,79078.53
2022-10-14T13:13:52.650Z,79082.44
2022-10-14T13:16:27.657Z,79085.34
2022-10-14T13:18:59.889Z,79088.16
2022-10-14T13:21:36.690Z,79088.25
2022-10-14T13:24:18.413Z,79087.72
2022-10-14T13:26:56.198Z,79090.47
2022-10-14T13:29:49.208Z,79085.53
2022-10-14T13:32:35.363Z,79085.81
2022-10-14T13:35:23.606Z,79099.81
2022-10-14T13:38:07.695Z,79100.69
2022-10-14T13:40:44.810Z,79045.63
2022-10-14T13:43:22.410Z,79082.09
2022-10-14T13:46:29.423Z,79098.66
2022-10-14T13:49:02.074Z,79094.97
2022-10-14T13:51:56.758Z,79101.69
2022-10-14T13:54:33.414Z,79112.47
2022-10-14T13:57:53.617Z,79110.06
2022-10-14T14:02:56.785Z,79116.22
2022-10-14T14:05:33.406Z,79107.63
2022-10-14T14:11:16.204Z,79128.94
2022-10-14T14:14:06.115Z,79119.66
2022-10-14T14:16:49.909Z,79123.69
2022-10-14T14:19:26.027Z,79121.72
2022-10-14T14:22:28.413Z,79129.53
2022-10-14T14:28:16.222Z,79122.78
2022-10-14T14:30:54.838Z,79123.41
2022-10-14T14:33:32.172Z,79136.72
2022-10-14T14:36:22.260Z,79134.84
2022-10-14T14:39:00.036Z,79140.97
2022-10-14T14:41:31.818Z,79112.50
2022-10-14T14:44:25.658Z,79129.16
2022-10-14T14:46:59.016Z,79117.72
2022-10-14T14:49:38.991Z,79119.16
2022-10-14T14:52:08.856Z,79125.66
2022-10-14T14:54:51.276Z,79118.34
2022-10-14T14:57:22.635Z,79133.50
2022-10-14T15:00:03.994Z,79115.88
2022-10-14T15:02:35.775Z,79140.88
2022-10-14T15:05:13.213Z,79130.28
2022-10-14T15:07:44.802Z,79145.47
2022-10-14T15:10:27.000Z,79145.09
2022-10-14T15:12:58.338Z,79141.81
2022-10-14T15:15:33.291Z,79129.97
2022-10-14T15:18:21.515Z,79142.34
2022-10-14T15:20:51.087Z,79146.34
2022-10-14T15:23:42.742Z,79144.25
2022-10-14T15:26:25.044Z,79142.84
2022-10-14T15:29:09.390Z,79138.03
2022-10-14T15:31:40.734Z,79133.50
2022-10-14T15:34:24.163Z,79136.69
2022-10-14T15:36:55.070Z,79145.31
2022-10-14T15:39:24.653Z,79148.69
2022-10-14T15:41:53.198Z,79127.56
2022-10-14T15:44:22.078Z,79145.91
2022-10-14T15:47:09.841Z,79140.03
2022-10-14T15:49:46.147Z,79133.88
2022-10-14T15:52:22.941Z,79145.16
2022-10-14T15:54:56.885Z,79118.59
2022-10-14T15:57:26.140Z,79135.56
2022-10-14T15:59:55.773Z,79140.13
2022-10-14T16:02:34.560Z,79125.72
2022-10-14T16:05:20.075Z,79134.78
2022-10-14T16:07:50.183Z,79121.25
2022-10-14T16:10:22.334Z,79126.44
2022-10-14T16:12:51.608Z,79131.03
2022-10-14T16:15:29.833Z,79142.16
2022-10-14T16:18:00.615Z,79122.84
2022-10-14T16:20:31.719Z,79129.97
2022-10-14T16:23:02.231Z,79119.50
2022-10-14T16:25:40.734Z,79116.78
2022-10-14T16:28:12.464Z,79116.59
2022-10-14T16:30:49.589Z,79116.19
2022-10-14T16:33:20.587Z,79113.59
2022-10-14T16:35:55.100Z,79114.28
2022-10-14T16:38:25.783Z,79119.50
2022-10-14T16:40:58.439Z,79127.44
2022-10-14T16:43:28.247Z,79121.56
2022-10-14T16:46:02.193Z,79119.50
2022-10-14T16:48:31.662Z,79116.25
2022-10-14T16:51:00.635Z,79127.66
2022-10-14T16:53:44.449Z,79113.00
2022-10-14T16:56:39.902Z,79122.84
2022-10-14T16:59:09.229Z,79111.75
2022-10-14T17:01:38.038Z,79111.13
2022-10-14T17:04:14.974Z,79108.06
2022-10-14T17:06:44.653Z,79118.19
2022-10-14T17:09:15.054Z,79115.00
2022-10-14T17:11:44.309Z,79125.94
2022-10-14T17:14:18.994Z,79119.47
2022-10-14T17:16:48.000Z,79109.06
2022-10-14T17:19:16.682Z,79110.03
2022-10-14T17:21:45.785Z,79104.22
2022-10-14T17:24:17.843Z,79098.44
2022-10-14T17:26:46.931Z,79105.19
2022-10-14T17:29:15.866Z,79105.88
2022-10-14T17:31:47.145Z,79103.25
2022-10-14T17:34:15.829Z,79097.38
2022-10-14T17:36:44.591Z,79096.88
2022-10-14T17:39:20.181Z,79110.03
2022-10-14T17:41:55.772Z,79099.00
2022-10-14T17:44:24.625Z,79106.28
2022-10-14T17:46:55.901Z,79080.00
2022-10-14T17:49:25.053Z,79103.66
2022-10-14T17:51:53.926Z,79095.16
2022-10-14T17:54:22.642Z,79094.03
2022-10-14T17:56:51.983Z,79090.03
2022-10-14T17:59:21.805Z,79095.25
2022-10-14T18:02:02.641Z,79099.91
2022-10-14T18:04:33.477Z,79101.25
2022-10-14T18:07:02.567Z,79100.72
2022-10-14T18:09:31.260Z,79073.59
2022-10-14T18:12:09.267Z,79083.41
2022-10-14T18:14:41.269Z,79090.06
2022-10-14T18:17:15.285Z,79078.38
2022-10-14T18:19:47.220Z,79060.56
2022-10-14T18:22:21.113Z,79054.72
2022-10-14T18:24:49.688Z,79066.59
2022-10-14T18:27:18.797Z,79075.88
2022-10-14T18:29:47.853Z,79072.53
2022-10-14T18:32:54.099Z,79078.56
2022-10-14T18:35:30.173Z,79083.16
2022-10-14T18:37:59.419Z,79073.06
2022-10-14T18:40:28.795Z,79069.97
2022-10-14T18:42:59.313Z,79059.31
2022-10-14T18:45:28.457Z,79042.94
2022-10-14T18:48:00.552Z,79054.03
2022-10-14T18:50:29.998Z,79073.06
2022-10-14T18:52:59.014Z,79027.72
2022-10-14T18:55:29.073Z,79064.47
2022-10-14T18:58:01.310Z,79056.69
2022-10-14T19:00:30.273Z,79058.72
2022-10-14T19:02:58.988Z,79061.34
2022-10-14T19:05:32.996Z,79056.72
2022-10-14T19:08:04.537Z,79057.25
2022-10-14T19:10:34.349Z,79051.34
2022-10-14T19:13:05.239Z,79054.03
2022-10-14T19:15:46.124Z,79049.88
2022-10-14T19:18:18.975Z,79034.13
2022-10-14T19:20:54.020Z,79039.47
2022-10-14T19:23:23.129Z,79032.78
2022-10-14T19:25:52.093Z,79041.34
2022-10-14T19:28:21.214Z,79006.38
2022-10-14T19:30:50.115Z,79037.84
2022-10-14T19:33:19.117Z,79029.44
2022-10-14T19:36:01.244Z,79034.72
2022-10-14T19:38:30.413Z,79032.25
2022-10-14T19:41:04.084Z,79036.88
2022-10-14T19:43:33.780Z,79031.59
2022-10-14T19:46:09.953Z,79041.31
2022-10-14T19:48:39.805Z,79048.59
2022-10-14T19:51:12.880Z,79037.56
2022-10-14T19:53:42.164Z,79035.63
2022-10-14T19:56:14.163Z,79040.53
2022-10-14T19:58:44.863Z,79032.69
2022-10-14T20:01:53.441Z,79041.63
2022-10-14T20:04:26.663Z,79025.72
2022-10-14T20:06:56.385Z,79020.06
2022-10-14T20:09:25.509Z,79025.19
2022-10-14T20:11:54.786Z,79028.22
2022-10-14T20:14:23.620Z,79012.47
2022-10-14T20:16:55.171Z,79002.16
2022-10-14T20:19:25.125Z,79030.75
2022-10-14T20:21:53.717Z,79020.78
2022-10-14T20:24:22.485Z,79014.03
2022-10-14T20:26:51.256Z,79010.44
2022-10-14T20:29:20.005Z,79007.91
2022-10-14T20:31:48.637Z,78956.13
2022-10-14T20:34:17.749Z,79009.47
2022-10-14T20:36:46.433Z,79005.59
2022-10-14T20:39:15.625Z,79009.53
2022-10-14T20:41:44.566Z,79002.97
2022-10-14T20:44:13.378Z,78999.75
2022-10-14T20:46:41.962Z,78993.22
2022-10-14T20:49:10.998Z,78986.63
2022-10-14T20:51:40.264Z,79005.16
2022-10-14T20:54:11.860Z,78985.56
2022-10-14T20:56:41.080Z,78980.41
2022-10-14T20:59:13.322Z,78977.88
2022-10-14T21:01:42.434Z,78977.88
2022-10-14T21:04:11.134Z,78991.88
2022-10-14T21:06:40.077Z,78981.97
2022-10-14T21:09:08.886Z,78949.56
2022-10-14T21:11:37.944Z,78974.44
2022-10-14T21:14:07.041Z,78968.56
2022-10-14T21:16:37.896Z,78971.00
2022-10-14T21:19:12.077Z,78982.75
2022-10-14T21:21:44.039Z,78971.53
2022-10-14T21:24:17.487Z,78977.66
2022-10-14T21:26:48.784Z,78979.19
2022-10-14T21:29:18.703Z,78982.03
2022-10-14T21:31:47.894Z,78980.03
2022-10-14T21:34:17.087Z,78966.91
2022-10-14T21:36:46.068Z,78962.53
2022-10-14T21:39:17.009Z,78976.00
2022-10-14T21:41:46.787Z,78974.69
2022-10-14T21:44:17.595Z,78951.56
2022-10-14T21:46:47.342Z,78964.16
2022-10-14T21:49:16.661Z,78957.00
2022-10-14T21:51:45.766Z,78966.44
2022-10-14T21:54:15.194Z,78953.94
2022-10-14T21:56:44.169Z,78958.22
2022-10-14T21:59:13.996Z,78934.88
2022-10-14T22:01:43.017Z,78947.38
2022-10-14T22:04:33.307Z,78946.75
2022-10-14T22:07:07.513Z,78932.38
2022-10-14T22:09:36.289Z,78933.19
2022-10-14T22:12:05.926Z,78925.28
2022-10-14T22:15:12.518Z,78938.22
2022-10-14T22:17:41.597Z,78934.53
2022-10-14T22:20:10.907Z,78927.41
2022-10-14T22:22:40.045Z,78936.59
2022-10-14T22:25:09.359Z,78918.25
2022-10-14T22:27:38.459Z,78928.44
2022-10-14T22:30:08.024Z,78913.84
2022-10-14T22:32:37.048Z,78934.59
2022-10-14T22:35:37.925Z,78939.25
2022-10-14T22:38:07.117Z,78902.25
2022-10-14T22:40:36.144Z,78931.94
2022-10-14T22:43:05.047Z,78930.88
2022-10-14T22:45:33.848Z,78920.59
2022-10-14T22:48:03.211Z,78925.84
2022-10-14T22:50:32.067Z,78918.72
2022-10-14T22:53:01.049Z,78908.00
2022-10-14T22:55:29.892Z,78906.38
2022-10-14T22:57:59.135Z,78910.22
2022-10-14T23:00:28.033Z,78914.13
2022-10-14T23:02:57.523Z,78917.84
2022-10-14T23:05:26.223Z,78910.06
2022-10-14T23:07:55.323Z,78895.66
2022-10-14T23:10:24.115Z,78906.09
2022-10-14T23:12:53.171Z,78913.66
2022-10-14T23:15:22.001Z,78920.72
2022-10-14T23:17:51.097Z,78915.03
2022-10-14T23:20:19.763Z,78912.69
2022-10-14T23:22:48.915Z,78913.97
2022-10-14T23:25:17.909Z,78915.78
2022-10-14T23:27:47.177Z,78914.06
2022-10-14T23:30:15.904Z,78912.88
2022-10-14T23:32:46.771Z,78904.09
2022-10-14T23:35:15.659Z,78900.41
2022-10-14T23:37:45.373Z,78906.81
2022-10-14T23:40:17.505Z,78921.38
2022-10-14T23:43:24.610Z,78919.97
2022-10-14T23:45:55.718Z,78911.53
2022-10-14T23:49:13.960Z,78927.81
2022-10-14T23:51:50.508Z,78914.66
2022-10-14T23:54:19.167Z,78914.25
2022-10-14T23:56:48.204Z,78930.53
2022-10-14T23:59:17.322Z,78923.34
